Accueil
METAR-TAF:

METAR-TAF

Aéroports :

Pipestone Municipal Airport

Pipestone, Minnesota, États-Unis

latitude: 43-59N, longitude: 096-19W, altitude: 529 m

Observation

Le bulletin a été fait il y a 21 minutes, à 21:15 UTC
Vent 6 kt de sud-est
Température 10°C
Humidité 76%
Pression 1006 hPa
Visibilité: 16.1 km
Ciel clair

METAR: KPQN 202115Z AUTO 14006KT 10SM CLR 10/06 A2970 RMK AO2

Heure: 15:36 (21:36 UTC)


TAF: absent

Observations et prévisions météorologiques de plus de 4000 aéroports (messages METAR et TAF).

Les stations disponibles sont représentées par des disques jaunes et rouges sur la carte.

Passer la souris dessus pour voir le nom de la station.

Cliquer dessus pour voir les observations et prévisions météorologiques.

Pour changer de carte: cliquez sur les boutons verts avec une croix noire pour zoomer, sur le bouton vert avec un tiret pour effectuer un zoom arrière, ou sur les flèches vertes pour les cartes adjacentes.


METAR-TAF: